Schley, Wisconsin
Current Conditions -  °F | °C
As of 1:35 AM on Saturday 29 Nov 2014 (Local Time) from KRRL Reporting Station
Haze Haze  
Wind Chill: 19°   Ceiling: 500
Heat Index: 19°   Visibility: 5mi
Dew Point: 18°   Wind: 3mph
Humidity: 94%   Direction: 130°SE
Pressure: 29.72"   Gusts: NA
Location:  45.2167°N, 89.8732°W
Report Text: KRRL 290735Z AUTO 13003KT 5SM BR OVC005 M07/M08 A2972 RMK AO2 T10721080
Loading
Personal Weather Stations






























Interactive Weather Map New forecast layout! Learn more

10-Day Weather Forecast

Advertisements
Track Severe Weather on mobile